createdAt,value
2023-01-19T07:59:39.509Z,17.61
2023-01-19T08:00:39.420Z,18.38
2023-01-19T08:01:39.522Z,18.99
2023-01-19T08:02:39.420Z,19.56
2023-01-19T08:03:39.427Z,20.06
2023-01-19T08:04:39.565Z,20.41
2023-01-19T08:05:39.420Z,20.65
2023-01-19T08:06:39.432Z,20.86
2023-01-19T08:07:39.499Z,21.05
2023-01-19T08:08:39.340Z,21.21
2023-01-19T08:09:39.330Z,21.35
2023-01-19T08:10:39.336Z,21.47
2023-01-19T08:11:39.340Z,21.60
2023-01-19T08:12:39.353Z,21.73
2023-01-19T08:13:39.431Z,21.77
2023-01-19T08:14:39.339Z,21.84
2023-01-19T08:15:39.366Z,21.90
2023-01-19T08:16:39.340Z,21.94
2023-01-19T08:17:39.349Z,21.98
2023-01-19T08:18:39.260Z,22.07
2023-01-19T08:19:41.543Z,22.12
2023-01-19T08:20:39.300Z,22.15
2023-01-19T08:21:39.294Z,22.19
2023-01-19T08:22:39.266Z,22.29
2023-01-19T08:23:39.302Z,22.79
2023-01-19T08:24:39.246Z,22.88
2023-01-19T08:25:39.259Z,22.89
2023-01-19T08:26:39.259Z,22.88
2023-01-19T08:27:39.264Z,22.92
2023-01-19T08:28:39.280Z,22.92
2023-01-19T08:29:39.179Z,22.94
2023-01-19T08:30:39.215Z,22.97
2023-01-19T08:31:39.334Z,23.02
2023-01-19T08:32:39.187Z,23.04
2023-01-19T08:33:39.262Z,23.06
2023-01-19T08:34:39.190Z,23.10
2023-01-19T08:35:39.283Z,23.31
2023-01-19T08:36:39.241Z,23.33
2023-01-19T08:37:39.204Z,23.28
2023-01-19T08:38:39.160Z,23.23
2023-01-19T08:39:39.291Z,23.19
2023-01-19T08:40:39.170Z,23.16
2023-01-19T08:41:39.186Z,23.12
2023-01-19T08:42:39.402Z,23.09
2023-01-19T08:43:39.249Z,23.09
2023-01-19T08:44:46.692Z,23.09
2023-01-19T08:45:40.091Z,23.01
2023-01-19T08:46:39.521Z,22.82
2023-01-19T08:47:39.222Z,23.02
2023-01-19T08:48:40.003Z,23.15
